sensor_id;sensor_type;location;lat;lon;timestamp;pressure;altitude;pressure_sealevel;temperature;humidity
77572;BME280;67214;47.454;18.966;2023-04-16T00:01:05;99894.60;;;5.91;86.26
77572;BME280;67214;47.454;18.966;2023-04-16T00:03:33;99909.63;;;5.89;86.21
77572;BME280;67214;47.454;18.966;2023-04-16T00:06:00;99909.05;;;5.84;86.47
77572;BME280;67214;47.454;18.966;2023-04-16T00:08:27;99896.48;;;5.82;86.43
77572;BME280;67214;47.454;18.966;2023-04-16T00:10:55;99903.73;;;5.78;86.39
77572;BME280;67214;47.454;18.966;2023-04-16T00:13:22;99903.91;;;5.75;86.60
77572;BME280;67214;47.454;18.966;2023-04-16T00:15:51;99908.82;;;5.74;86.59
77572;BME280;67214;47.454;18.966;2023-04-16T00:18:19;99903.00;;;5.69;86.54
77572;BME280;67214;47.454;18.966;2023-04-16T00:20:47;99907.88;;;5.68;86.61
77572;BME280;67214;47.454;18.966;2023-04-16T00:23:16;99905.92;;;5.65;86.60
77572;BME280;67214;47.454;18.966;2023-04-16T00:25:43;99903.03;;;5.62;86.57
77572;BME280;67214;47.454;18.966;2023-04-16T00:28:11;99907.06;;;5.60;86.55
77572;BME280;67214;47.454;18.966;2023-04-16T00:30:38;99904.73;;;5.56;86.44
77572;BME280;67214;47.454;18.966;2023-04-16T00:33:06;99909.26;;;5.54;86.38
77572;BME280;67214;47.454;18.966;2023-04-16T00:35:34;99901.27;;;5.48;86.33
77572;BME280;67214;47.454;18.966;2023-04-16T00:38:01;99910.77;;;5.44;86.30
77572;BME280;67214;47.454;18.966;2023-04-16T00:40:29;99910.59;;;5.40;86.40
77572;BME280;67214;47.454;18.966;2023-04-16T00:42:56;99916.05;;;5.37;86.37
77572;BME280;67214;47.454;18.966;2023-04-16T00:45:24;99916.88;;;5.30;86.39
77572;BME280;67214;47.454;18.966;2023-04-16T00:47:51;99914.57;;;5.26;86.40
77572;BME280;67214;47.454;18.966;2023-04-16T00:50:19;99911.46;;;5.19;86.55
77572;BME280;67214;47.454;18.966;2023-04-16T00:52:50;99906.11;;;5.13;86.67
77572;BME280;67214;47.454;18.966;2023-04-16T00:55:17;99900.40;;;5.07;86.70
77572;BME280;67214;47.454;18.966;2023-04-16T00:57:46;99901.73;;;5.00;86.86
77572;BME280;67214;47.454;18.966;2023-04-16T01:00:15;99904.90;;;4.98;86.81
77572;BME280;67214;47.454;18.966;2023-04-16T01:02:43;99902.20;;;4.92;86.80
77572;BME280;67214;47.454;18.966;2023-04-16T01:05:11;99904.45;;;4.91;87.02
77572;BME280;67214;47.454;18.966;2023-04-16T01:07:38;99906.88;;;4.94;87.66
77572;BME280;67214;47.454;18.966;2023-04-16T01:10:06;99914.38;;;4.93;87.80
77572;BME280;67214;47.454;18.966;2023-04-16T01:12:34;99909.70;;;4.91;87.70
77572;BME280;67214;47.454;18.966;2023-04-16T01:15:02;99904.45;;;4.91;87.69
77572;BME280;67214;47.454;18.966;2023-04-16T01:17:29;99915.61;;;4.95;87.65
77572;BME280;67214;47.454;18.966;2023-04-16T01:20:00;99908.66;;;4.94;87.36
77572;BME280;67214;47.454;18.966;2023-04-16T01:22:27;99911.40;;;4.92;87.35
77572;BME280;67214;47.454;18.966;2023-04-16T01:24:55;99915.04;;;4.90;87.33
77572;BME280;67214;47.454;18.966;2023-04-16T01:27:22;99909.78;;;4.90;87.34
77572;BME280;67214;47.454;18.966;2023-04-16T01:29:50;99924.62;;;4.91;87.35
77572;BME280;67214;47.454;18.966;2023-04-16T01:32:18;99916.81;;;4.89;87.26
77572;BME280;67214;47.454;18.966;2023-04-16T01:34:47;99916.00;;;4.89;87.15
77572;BME280;67214;47.454;18.966;2023-04-16T01:37:14;99915.70;;;4.86;87.09
77572;BME280;67214;47.454;18.966;2023-04-16T01:39:41;99918.80;;;4.86;87.01
77572;BME280;67214;47.454;18.966;2023-04-16T01:42:09;99912.98;;;4.88;87.01
77572;BME280;67214;47.454;18.966;2023-04-16T01:44:36;99919.56;;;4.88;87.02
77572;BME280;67214;47.454;18.966;2023-04-16T01:47:04;99920.88;;;4.88;86.87
77572;BME280;67214;47.454;18.966;2023-04-16T01:49:31;99920.57;;;4.85;86.87
77572;BME280;67214;47.454;18.966;2023-04-16T01:51:59;99922.73;;;4.86;86.93
77572;BME280;67214;47.454;18.966;2023-04-16T01:54:26;99916.16;;;4.86;86.85
77572;BME280;67214;47.454;18.966;2023-04-16T01:56:53;99912.15;;;4.80;86.71
77572;BME280;67214;47.454;18.966;2023-04-16T01:59:22;99925.94;;;4.77;86.75
77572;BME280;67214;47.454;18.966;2023-04-16T02:01:49;99918.33;;;4.72;86.73
77572;BME280;67214;47.454;18.966;2023-04-16T02:04:17;99919.45;;;4.68;86.84
77572;BME280;67214;47.454;18.966;2023-04-16T02:06:44;99913.82;;;4.67;87.03
77572;BME280;67214;47.454;18.966;2023-04-16T02:09:12;99914.94;;;4.63;87.23
77572;BME280;67214;47.454;18.966;2023-04-16T02:11:39;99916.98;;;4.65;87.16
77572;BME280;67214;47.454;18.966;2023-04-16T02:14:06;99922.44;;;4.62;87.33
77572;BME280;67214;47.454;18.966;2023-04-16T02:16:34;99928.65;;;4.68;87.29
77572;BME280;67214;47.454;18.966;2023-04-16T02:19:01;99926.56;;;4.66;87.08
77572;BME280;67214;47.454;18.966;2023-04-16T02:21:30;99938.11;;;4.63;87.25
77572;BME280;67214;47.454;18.966;2023-04-16T02:23:57;99932.48;;;4.62;87.30
77572;BME280;67214;47.454;18.966;2023-04-16T02:26:25;99937.81;;;4.61;87.33
77572;BME280;67214;47.454;18.966;2023-04-16T02:28:54;99942.05;;;4.56;87.28
77572;BME280;67214;47.454;18.966;2023-04-16T02:31:21;99949.34;;;4.51;87.28
77572;BME280;67214;47.454;18.966;2023-04-16T02:33:49;99938.19;;;4.48;87.35
77572;BME280;67214;47.454;18.966;2023-04-16T02:36:16;99948.11;;;4.50;87.35
77572;BME280;67214;47.454;18.966;2023-04-16T02:38:44;99939.66;;;4.45;87.31
77572;BME280;67214;47.454;18.966;2023-04-16T02:41:12;99936.36;;;4.41;87.29
77572;BME280;67214;47.454;18.966;2023-04-16T02:43:39;99934.39;;;4.38;87.35
77572;BME280;67214;47.454;18.966;2023-04-16T02:46:07;99931.12;;;4.41;87.13
77572;BME280;67214;47.454;18.966;2023-04-16T02:48:35;99931.42;;;4.44;86.96
77572;BME280;67214;47.454;18.966;2023-04-16T02:51:02;99918.45;;;4.34;87.25
77572;BME280;67214;47.454;18.966;2023-04-16T02:53:30;99925.28;;;4.36;87.37
77572;BME280;67214;47.454;18.966;2023-04-16T02:55:57;99930.45;;;4.31;87.38
77572;BME280;67214;47.454;18.966;2023-04-16T02:58:25;99932.34;;;4.36;87.43
77572;BME280;67214;47.454;18.966;2023-04-16T03:00:54;99943.11;;;4.31;87.29
77572;BME280;67214;47.454;18.966;2023-04-16T03:03:21;99939.17;;;4.31;87.19
77572;BME280;67214;47.454;18.966;2023-04-16T03:05:49;99933.98;;;4.23;87.08
77572;BME280;67214;47.454;18.966;2023-04-16T03:08:16;99952.62;;;4.18;87.15
77572;BME280;67214;47.454;18.966;2023-04-16T03:10:44;99947.55;;;4.15;87.14
77572;BME280;67214;47.454;18.966;2023-04-16T03:13:11;99945.19;;;4.10;87.15
77572;BME280;67214;47.454;18.966;2023-04-16T03:15:39;99948.28;;;4.10;87.14
77572;BME280;67214;47.454;18.966;2023-04-16T03:18:06;99956.98;;;4.03;86.98
77572;BME280;67214;47.454;18.966;2023-04-16T03:20:34;99938.09;;;3.97;86.92
77572;BME280;67214;47.454;18.966;2023-04-16T03:23:02;99946.08;;;3.95;86.95
77572;BME280;67214;47.454;18.966;2023-04-16T03:25:29;99950.36;;;3.96;86.88
77572;BME280;67214;47.454;18.966;2023-04-16T03:27:57;99963.37;;;3.91;86.81
77572;BME280;67214;47.454;18.966;2023-04-16T03:30:24;99963.06;;;3.88;86.82
77572;BME280;67214;47.454;18.966;2023-04-16T03:32:51;99965.16;;;3.90;86.63
77572;BME280;67214;47.454;18.966;2023-04-16T03:35:19;99975.80;;;3.87;86.66
77572;BME280;67214;47.454;18.966;2023-04-16T03:37:46;99982.53;;;3.84;86.78
77572;BME280;67214;47.454;18.966;2023-04-16T03:40:15;99988.84;;;3.89;86.72
77572;BME280;67214;47.454;18.966;2023-04-16T03:42:42;99984.77;;;3.83;86.72
77572;BME280;67214;47.454;18.966;2023-04-16T03:45:10;99991.50;;;3.80;86.86
77572;BME280;67214;47.454;18.966;2023-04-16T03:47:37;99998.52;;;3.80;86.99
77572;BME280;67214;47.454;18.966;2023-04-16T03:50:07;100002.25;;;3.75;86.96
77572;BME280;67214;47.454;18.966;2023-04-16T03:52:34;100001.39;;;3.75;87.29
77572;BME280;67214;47.454;18.966;2023-04-16T03:55:02;100020.92;;;3.78;87.33
77572;BME280;67214;47.454;18.966;2023-04-16T03:57:29;100008.09;;;3.81;87.33
77572;BME280;67214;47.454;18.966;2023-04-16T03:59:57;100016.73;;;3.83;87.39
77572;BME280;67214;47.454;18.966;2023-04-16T04:02:24;100008.97;;;3.88;87.24
77572;BME280;67214;47.454;18.966;2023-04-16T04:04:52;100008.58;;;3.87;87.21
77572;BME280;67214;47.454;18.966;2023-04-16T04:07:19;100008.30;;;3.85;87.14
77572;BME280;67214;47.454;18.966;2023-04-16T04:09:47;100010.00;;;3.86;87.10
77572;BME280;67214;47.454;18.966;2023-04-16T04:12:14;100008.30;;;3.85;87.12
77572;BME280;67214;47.454;18.966;2023-04-16T04:14:42;100006.30;;;3.97;87.02
77572;BME280;67214;47.454;18.966;2023-04-16T04:17:09;100000.31;;;3.95;87.11
77572;BME280;67214;47.454;18.966;2023-04-16T04:19:36;99990.03;;;3.99;87.15
77572;BME280;67214;47.454;18.966;2023-04-16T04:22:04;99990.67;;;4.18;87.02
77572;BME280;67214;47.454;18.966;2023-04-16T04:24:32;99996.97;;;4.23;87.01
77572;BME280;67214;47.454;18.966;2023-04-16T04:26:59;100008.42;;;4.29;87.07
77572;BME280;67214;47.454;18.966;2023-04-16T04:29:27;100013.72;;;4.36;87.21
77572;BME280;67214;47.454;18.966;2023-04-16T04:31:55;100034.81;;;4.41;87.20
77572;BME280;67214;47.454;18.966;2023-04-16T04:34:24;100028.77;;;4.48;87.18
77572;BME280;67214;47.454;18.966;2023-04-16T04:36:51;100032.13;;;4.50;87.18
77572;BME280;67214;47.454;18.966;2023-04-16T04:39:19;100023.72;;;4.52;87.20
77572;BME280;67214;47.454;18.966;2023-04-16T04:41:47;100037.59;;;4.54;87.25
77572;BME280;67214;47.454;18.966;2023-04-16T04:44:14;100037.59;;;4.54;87.16
77572;BME280;67214;47.454;18.966;2023-04-16T04:46:42;100031.69;;;4.57;87.09
77572;BME280;67214;47.454;18.966;2023-04-16T04:49:09;100030.30;;;4.59;87.12
77572;BME280;67214;47.454;18.966;2023-04-16T04:51:37;100032.66;;;4.63;87.08
77572;BME280;67214;47.454;18.966;2023-04-16T04:54:04;100027.09;;;4.61;87.30
77572;BME280;67214;47.454;18.966;2023-04-16T04:56:31;100032.40;;;4.68;87.55
77572;BME280;67214;47.454;18.966;2023-04-16T04:58:59;100021.52;;;4.81;87.43
77572;BME280;67214;47.454;18.966;2023-04-16T05:01:26;100035.36;;;4.92;87.21
77572;BME280;67214;47.454;18.966;2023-04-16T05:03:54;100031.61;;;4.96;87.18
77572;BME280;67214;47.454;18.966;2023-04-16T05:06:21;100036.80;;;5.11;87.02
77572;BME280;67214;47.454;18.966;2023-04-16T05:08:48;100021.21;;;5.23;86.17
77572;BME280;67214;47.454;18.966;2023-04-16T05:11:16;100024.30;;;5.22;86.26
77572;BME280;67214;47.454;18.966;2023-04-16T05:13:43;100028.94;;;5.26;86.39
77572;BME280;67214;47.454;18.966;2023-04-16T05:16:11;100033.42;;;5.24;86.49
77572;BME280;67214;47.454;18.966;2023-04-16T05:18:38;100033.81;;;5.25;86.73
77572;BME280;67214;47.454;18.966;2023-04-16T05:21:06;100033.53;;;5.29;86.78
77572;BME280;67214;47.454;18.966;2023-04-16T05:23:34;100038.21;;;5.31;86.73
77572;BME280;67214;47.454;18.966;2023-04-16T05:26:01;100039.45;;;5.33;86.72
77572;BME280;67214;47.454;18.966;2023-04-16T05:28:30;100040.39;;;5.46;86.57
77572;BME280;67214;47.454;18.966;2023-04-16T05:30:57;100045.84;;;5.50;86.46
77572;BME280;67214;47.454;18.966;2023-04-16T05:33:24;100051.92;;;5.50;86.19
77572;BME280;67214;47.454;18.966;2023-04-16T05:35:52;100040.95;;;5.58;86.25
77572;BME280;67214;47.454;18.966;2023-04-16T05:38:19;100054.17;;;5.63;86.26
77572;BME280;67214;47.454;18.966;2023-04-16T05:40:47;100057.17;;;5.72;86.33
77572;BME280;67214;47.454;18.966;2023-04-16T05:43:14;100048.80;;;5.79;86.37
77572;BME280;67214;47.454;18.966;2023-04-16T05:45:42;100052.80;;;5.86;86.19
77572;BME280;67214;47.454;18.966;2023-04-16T05:48:09;100050.87;;;5.95;86.04
77572;BME280;67214;47.454;18.966;2023-04-16T05:50:37;100046.99;;;6.08;85.99
77572;BME280;67214;47.454;18.966;2023-04-16T05:53:06;100049.63;;;6.08;85.51
77572;BME280;67214;47.454;18.966;2023-04-16T05:55:36;100050.04;;;6.29;84.93
77572;BME280;67214;47.454;18.966;2023-04-16T05:58:03;100053.87;;;6.37;84.70
77572;BME280;67214;47.454;18.966;2023-04-16T06:00:32;100058.93;;;6.47;84.81
77572;BME280;67214;47.454;18.966;2023-04-16T06:02:59;100059.73;;;6.55;84.70
77572;BME280;67214;47.454;18.966;2023-04-16T06:05:28;100049.54;;;6.63;84.76
77572;BME280;67214;47.454;18.966;2023-04-16T06:07:56;100056.05;;;6.77;84.37
77572;BME280;67214;47.454;18.966;2023-04-16T06:10:23;100059.48;;;6.85;84.13
77572;BME280;67214;47.454;18.966;2023-04-16T06:12:51;100066.23;;;6.89;84.20
77572;BME280;67214;47.454;18.966;2023-04-16T06:15:19;100062.14;;;6.97;84.32
77572;BME280;67214;47.454;18.966;2023-04-16T06:17:46;100061.91;;;7.08;84.33
77572;BME280;67214;47.454;18.966;2023-04-16T06:20:13;100068.14;;;7.19;84.01
77572;BME280;67214;47.454;18.966;2023-04-16T06:22:41;100064.59;;;7.26;83.63
77572;BME280;67214;47.454;18.966;2023-04-16T06:25:09;100057.00;;;7.34;82.97
77572;BME280;67214;47.454;18.966;2023-04-16T06:27:36;100065.39;;;7.46;82.54
77572;BME280;67214;47.454;18.966;2023-04-16T06:30:05;100065.22;;;7.67;81.93
77572;BME280;67214;47.454;18.966;2023-04-16T06:32:33;100066.59;;;7.85;81.76
77572;BME280;67214;47.454;18.966;2023-04-16T06:35:01;100065.04;;;7.88;81.07
77572;BME280;67214;47.454;18.966;2023-04-16T06:37:28;100066.73;;;8.08;81.22
77572;BME280;67214;47.454;18.966;2023-04-16T06:39:56;100057.20;;;8.30;81.33
77572;BME280;67214;47.454;18.966;2023-04-16T06:42:23;100062.14;;;8.59;80.71
77572;BME280;67214;47.454;18.966;2023-04-16T06:44:51;100042.17;;;8.90;79.38
77572;BME280;67214;47.454;18.966;2023-04-16T06:47:18;100055.48;;;9.12;78.78
77572;BME280;67214;47.454;18.966;2023-04-16T06:49:46;100048.63;;;9.26;78.37
77572;BME280;67214;47.454;18.966;2023-04-16T06:52:14;100039.39;;;9.54;79.10
77572;BME280;67214;47.454;18.966;2023-04-16T06:54:41;100046.03;;;9.76;77.70
77572;BME280;67214;47.454;18.966;2023-04-16T06:57:08;100041.06;;;10.05;74.54
77572;BME280;67214;47.454;18.966;2023-04-16T06:59:36;100032.38;;;10.31;73.06
77572;BME280;67214;47.454;18.966;2023-04-16T07:02:04;100044.37;;;10.51;72.75
77572;BME280;67214;47.454;18.966;2023-04-16T07:04:31;100034.45;;;10.59;71.25
77572;BME280;67214;47.454;18.966;2023-04-16T07:06:59;100037.89;;;10.70;70.49
77572;BME280;67214;47.454;18.966;2023-04-16T07:09:26;100028.36;;;10.68;69.80
77572;BME280;67214;47.454;18.966;2023-04-16T07:11:53;100034.98;;;10.73;70.22
77572;BME280;67214;47.454;18.966;2023-04-16T07:14:21;100044.69;;;10.84;71.33
77572;BME280;67214;47.454;18.966;2023-04-16T07:16:49;100038.40;;;10.91;69.61
77572;BME280;67214;47.454;18.966;2023-04-16T07:19:16;100039.66;;;11.02;69.63
77572;BME280;67214;47.454;18.966;2023-04-16T07:21:44;100028.64;;;11.12;69.48
77572;BME280;67214;47.454;18.966;2023-04-16T07:24:11;100037.46;;;11.28;69.57
77572;BME280;67214;47.454;18.966;2023-04-16T07:26:39;100035.77;;;11.42;67.81
77572;BME280;67214;47.454;18.966;2023-04-16T07:29:07;100046.45;;;11.72;67.59
77572;BME280;67214;47.454;18.966;2023-04-16T07:31:34;100047.00;;;11.91;66.67
77572;BME280;67214;47.454;18.966;2023-04-16T07:34:02;100046.00;;;12.07;65.99
77572;BME280;67214;47.454;18.966;2023-04-16T07:36:29;100034.40;;;12.08;65.72
77572;BME280;67214;47.454;18.966;2023-04-16T07:38:57;100044.95;;;12.04;65.69
77572;BME280;67214;47.454;18.966;2023-04-16T07:41:25;100040.72;;;12.17;64.97
77572;BME280;67214;47.454;18.966;2023-04-16T07:43:52;100040.75;;;12.36;65.07
77572;BME280;67214;47.454;18.966;2023-04-16T07:46:20;100044.42;;;12.54;64.01
77572;BME280;67214;47.454;18.966;2023-04-16T07:48:47;100034.77;;;12.63;63.31
77572;BME280;67214;47.454;18.966;2023-04-16T07:51:15;100034.56;;;12.70;62.92
77572;BME280;67214;47.454;18.966;2023-04-16T07:53:42;100034.77;;;12.82;63.04
77572;BME280;67214;47.454;18.966;2023-04-16T07:56:10;100039.31;;;12.85;62.34
77572;BME280;67214;47.454;18.966;2023-04-16T07:58:37;100036.36;;;12.88;63.65
77572;BME280;67214;47.454;18.966;2023-04-16T08:01:05;100046.19;;;12.78;62.96
77572;BME280;67214;47.454;18.966;2023-04-16T08:03:33;100048.44;;;12.83;63.52
77572;BME280;67214;47.454;18.966;2023-04-16T08:06:00;100051.52;;;12.78;63.49
77572;BME280;67214;47.454;18.966;2023-04-16T08:08:28;100048.98;;;12.77;63.03
77572;BME280;67214;47.454;18.966;2023-04-16T08:10:55;100043.66;;;12.77;62.47
77572;BME280;67214;47.454;18.966;2023-04-16T08:13:23;100048.06;;;12.72;62.61
77572;BME280;67214;47.454;18.966;2023-04-16T08:15:51;100035.24;;;12.72;61.81
77572;BME280;67214;47.454;18.966;2023-04-16T08:18:18;100046.31;;;12.77;62.22
77572;BME280;67214;47.454;18.966;2023-04-16T08:20:46;100049.77;;;12.83;61.92
77572;BME280;67214;47.454;18.966;2023-04-16T08:23:13;100044.97;;;13.05;61.90
77572;BME280;67214;47.454;18.966;2023-04-16T08:25:41;100057.89;;;13.20;62.25
77572;BME280;67214;47.454;18.966;2023-04-16T08:28:08;100046.71;;;13.30;60.58
77572;BME280;67214;47.454;18.966;2023-04-16T08:30:36;100052.66;;;13.37;60.77
77572;BME280;67214;47.454;18.966;2023-04-16T08:33:04;100049.67;;;13.50;60.86
77572;BME280;67214;47.454;18.966;2023-04-16T08:35:31;100058.06;;;13.65;60.67
77572;BME280;67214;47.454;18.966;2023-04-16T08:37:59;100052.19;;;13.75;60.14
77572;BME280;67214;47.454;18.966;2023-04-16T08:40:28;100068.75;;;13.92;60.02
77572;BME280;67214;47.454;18.966;2023-04-16T08:42:57;100051.31;;;14.11;59.59
77572;BME280;67214;47.454;18.966;2023-04-16T08:45:26;100066.44;;;14.34;59.36
77572;BME280;67214;47.454;18.966;2023-04-16T08:47:53;100063.63;;;14.35;58.12
77572;BME280;67214;47.454;18.966;2023-04-16T08:50:25;100067.64;;;14.35;58.78
77572;BME280;67214;47.454;18.966;2023-04-16T08:52:58;100057.01;;;14.39;58.23
77572;BME280;67214;47.454;18.966;2023-04-16T08:58:20;100069.45;;;14.35;57.23
77572;BME280;67214;47.454;18.966;2023-04-16T09:00:48;100072.05;;;14.31;57.06
77572;BME280;67214;47.454;18.966;2023-04-16T09:03:16;100074.75;;;14.45;57.00
77572;BME280;67214;47.454;18.966;2023-04-16T09:05:46;100079.73;;;14.43;56.92
77572;BME280;67214;47.454;18.966;2023-04-16T09:08:14;100070.72;;;14.31;57.06
77572;BME280;67214;47.454;18.966;2023-04-16T09:10:42;100082.89;;;14.29;56.99
77572;BME280;67214;47.454;18.966;2023-04-16T09:13:10;100084.00;;;14.36;57.51
77572;BME280;67214;47.454;18.966;2023-04-16T09:15:39;100082.45;;;14.34;56.60
77572;BME280;67214;47.454;18.966;2023-04-16T09:18:07;100093.96;;;14.34;58.41
77572;BME280;67214;47.454;18.966;2023-04-16T09:20:35;100086.84;;;14.25;57.24
77572;BME280;67214;47.454;18.966;2023-04-16T09:23:02;100095.52;;;14.27;57.87
77572;BME280;67214;47.454;18.966;2023-04-16T09:25:33;100088.98;;;14.35;57.56
77572;BME280;67214;47.454;18.966;2023-04-16T09:28:02;100096.84;;;14.51;57.86
77572;BME280;67214;47.454;18.966;2023-04-16T09:30:30;100110.64;;;14.64;57.44
77572;BME280;67214;47.454;18.966;2023-04-16T09:33:13;100108.64;;;14.62;56.22
77572;BME280;67214;47.454;18.966;2023-04-16T09:35:47;100109.67;;;14.51;57.60
77572;BME280;67214;47.454;18.966;2023-04-16T09:38:15;100107.66;;;14.49;57.32
77572;BME280;67214;47.454;18.966;2023-04-16T09:40:43;100112.34;;;14.51;58.18
77572;BME280;67214;47.454;18.966;2023-04-16T09:43:17;100108.77;;;14.43;57.31
77572;BME280;67214;47.454;18.966;2023-04-16T09:45:53;100112.64;;;14.34;57.80
77572;BME280;67214;47.454;18.966;2023-04-16T09:48:31;100111.09;;;14.32;57.32
77572;BME280;67214;47.454;18.966;2023-04-16T09:50:59;100111.70;;;14.26;57.92
77572;BME280;67214;47.454;18.966;2023-04-16T09:53:28;100115.93;;;14.05;58.11
77572;BME280;67214;47.454;18.966;2023-04-16T09:56:01;100109.42;;;13.94;58.36
77572;BME280;67214;47.454;18.966;2023-04-16T09:58:29;100111.93;;;14.05;59.01
77572;BME280;67214;47.454;18.966;2023-04-16T10:01:06;100116.98;;;14.22;59.05
77572;BME280;67214;47.454;18.966;2023-04-16T10:03:35;100112.19;;;14.25;58.59
77572;BME280;67214;47.454;18.966;2023-04-16T10:06:08;100108.36;;;14.37;58.42
77572;BME280;67214;47.454;18.966;2023-04-16T10:08:36;100104.23;;;14.43;58.70
77572;BME280;67214;47.454;18.966;2023-04-16T10:11:06;100101.97;;;14.62;58.43
77572;BME280;67214;47.454;18.966;2023-04-16T10:13:33;100102.41;;;14.71;57.65
77572;BME280;67214;47.454;18.966;2023-04-16T10:16:01;100098.48;;;14.79;57.95
77572;BME280;67214;47.454;18.966;2023-04-16T10:18:29;100102.88;;;14.88;57.74
77572;BME280;67214;47.454;18.966;2023-04-16T10:20:57;100092.41;;;14.91;57.65
77572;BME280;67214;47.454;18.966;2023-04-16T10:23:26;100095.79;;;14.97;57.52
77572;BME280;67214;47.454;18.966;2023-04-16T10:25:54;100085.50;;;15.02;57.11
77572;BME280;67214;47.454;18.966;2023-04-16T10:28:22;100094.20;;;15.04;57.17
77572;BME280;67214;47.454;18.966;2023-04-16T10:30:51;100073.44;;;15.15;56.64
77572;BME280;67214;47.454;18.966;2023-04-16T10:33:21;100081.48;;;15.45;56.41
77572;BME280;67214;47.454;18.966;2023-04-16T10:35:52;100077.55;;;15.75;55.57
77572;BME280;67214;47.454;18.966;2023-04-16T10:38:26;100073.23;;;15.82;55.79
77572;BME280;67214;47.454;18.966;2023-04-16T10:41:00;100078.86;;;16.01;54.69
77572;BME280;67214;47.454;18.966;2023-04-16T10:43:32;100078.70;;;16.06;54.36
77572;BME280;67214;47.454;18.966;2023-04-16T10:46:25;100063.27;;;16.30;53.57
77572;BME280;67214;47.454;18.966;2023-04-16T10:48:54;100070.06;;;16.58;53.06
77572;BME280;67214;47.454;18.966;2023-04-16T10:51:35;100062.06;;;16.75;51.68
77572;BME280;67214;47.454;18.966;2023-04-16T10:56:37;100059.71;;;17.20;51.72
77572;BME280;67214;47.454;18.966;2023-04-16T10:59:09;100050.52;;;17.23;50.21
77572;BME280;67214;47.454;18.966;2023-04-16T11:01:45;100044.13;;;17.60;50.75
77572;BME280;67214;47.454;18.966;2023-04-16T11:04:26;100051.83;;;17.59;50.12
77572;BME280;67214;47.454;18.966;2023-04-16T11:09:54;100050.44;;;17.79;49.57
77572;BME280;67214;47.454;18.966;2023-04-16T11:12:46;100047.58;;;17.85;49.26
77572;BME280;67214;47.454;18.966;2023-04-16T11:15:08;100041.24;;;18.17;48.20
77572;BME280;67214;47.454;18.966;2023-04-16T11:17:38;100038.19;;;18.24;48.39
77572;BME280;67214;47.454;18.966;2023-04-16T11:20:19;100044.35;;;18.32;46.63
77572;BME280;67214;47.454;18.966;2023-04-16T11:22:50;100039.80;;;17.98;47.17
77572;BME280;67214;47.454;18.966;2023-04-16T11:25:19;100039.39;;;17.70;47.79
77572;BME280;67214;47.454;18.966;2023-04-16T11:27:48;100037.42;;;17.48;48.63
77572;BME280;67214;47.454;18.966;2023-04-16T11:30:16;100047.63;;;17.44;48.22
77572;BME280;67214;47.454;18.966;2023-04-16T11:32:44;100047.65;;;17.24;48.07
77572;BME280;67214;47.454;18.966;2023-04-16T11:35:16;100041.61;;;17.38;47.90
77572;BME280;67214;47.454;18.966;2023-04-16T11:37:45;100054.03;;;17.35;48.10
77572;BME280;67214;47.454;18.966;2023-04-16T11:40:14;100048.00;;;17.13;48.57
77572;BME280;67214;47.454;18.966;2023-04-16T11:42:42;100053.70;;;17.10;49.53
77572;BME280;67214;47.454;18.966;2023-04-16T11:45:11;100042.98;;;17.22;49.24
77572;BME280;67214;47.454;18.966;2023-04-16T11:47:46;100046.95;;;17.67;49.17
77572;BME280;67214;47.454;18.966;2023-04-16T11:50:20;100040.49;;;17.96;47.76
77572;BME280;67214;47.454;18.966;2023-04-16T11:52:49;100048.17;;;18.42;47.40
77572;BME280;67214;47.454;18.966;2023-04-16T11:55:18;100047.69;;;18.69;48.18
77572;BME280;67214;47.454;18.966;2023-04-16T11:57:46;100041.56;;;19.02;46.29
77572;BME280;67214;47.454;18.966;2023-04-16T12:00:15;100035.94;;;18.70;46.46
77572;BME280;67214;47.454;18.966;2023-04-16T12:02:51;100017.54;;;19.00;47.99
77572;BME280;67214;47.454;18.966;2023-04-16T12:05:35;100031.36;;;19.35;47.11
77572;BME280;67214;47.454;18.966;2023-04-16T12:08:06;100012.52;;;19.16;45.73
77572;BME280;67214;47.454;18.966;2023-04-16T12:10:36;100032.05;;;19.14;45.70
77572;BME280;67214;47.454;18.966;2023-04-16T12:13:19;100031.45;;;19.04;45.93
77572;BME280;67214;47.454;18.966;2023-04-16T12:15:50;100030.55;;;18.93;46.06
77572;BME280;67214;47.454;18.966;2023-04-16T12:18:20;100023.38;;;18.85;45.98
77572;BME280;67214;47.454;18.966;2023-04-16T12:20:48;100030.37;;;18.41;46.56
77572;BME280;67214;47.454;18.966;2023-04-16T12:25:55;100023.92;;;17.88;47.67
77572;BME280;67214;47.454;18.966;2023-04-16T12:28:30;100020.94;;;17.75;47.45
77572;BME280;67214;47.454;18.966;2023-04-16T12:30:58;100018.92;;;17.73;47.39
77572;BME280;67214;47.454;18.966;2023-04-16T12:33:26;100029.66;;;17.69;47.89
77572;BME280;67214;47.454;18.966;2023-04-16T12:35:54;100028.50;;;17.72;49.13
77572;BME280;67214;47.454;18.966;2023-04-16T12:38:22;100022.78;;;17.75;48.89
77572;BME280;67214;47.454;18.966;2023-04-16T12:40:51;100021.28;;;17.76;46.95
77572;BME280;67214;47.454;18.966;2023-04-16T12:43:20;100020.48;;;17.63;48.00
77572;BME280;67214;47.454;18.966;2023-04-16T12:45:48;100010.39;;;17.70;47.89
77572;BME280;67214;47.454;18.966;2023-04-16T12:48:16;100013.87;;;17.82;48.68
77572;BME280;67214;47.454;18.966;2023-04-16T12:50:43;100008.71;;;18.11;47.05
77572;BME280;67214;47.454;18.966;2023-04-16T12:53:11;100012.03;;;18.22;47.02
77572;BME280;67214;47.454;18.966;2023-04-16T12:55:39;100004.69;;;18.38;47.47
77572;BME280;67214;47.454;18.966;2023-04-16T12:58:07;100007.30;;;18.81;45.56
77572;BME280;67214;47.454;18.966;2023-04-16T13:00:34;100001.02;;;19.26;45.76
77572;BME280;67214;47.454;18.966;2023-04-16T13:03:02;100000.83;;;19.09;44.53
77572;BME280;67214;47.454;18.966;2023-04-16T13:05:29;99997.51;;;19.07;45.54